Topock, AZ (86436)

6:49 PM MST on August 27, 2015 (GMT -0700)
Needles | | Change Station
CLOSE
Current Station
Airport
Location: Needles,
Elevation: 981 ft
Nearby Weather Stations

Elev 981 ft 34.77 °N, 114.62 °W | Updated 53 minutes ago

Partly Cloudy
Partly Cloudy
108 °F
Feels Like 108 °F
N
9
Wind Variable Wind from NE

Today
High -- | Low -- °F
--% Chance of Precip.
Yesterday
High -- | Low -- °F
Precip. -- in
6:07 AM 7:11 PM
Waxing Gibbous, 96% visible
Pressure 29.70 in
Visibility 10.0 miles
Clouds Clear
Dew Point 52 °F
Humidity 16%
Rainfall 0.00 in
Snow Depth Not available.
UV 1 out of 12
Pollen 5.60 out of 12
Air Quality Not available.
Flu Activity Not available.
METAR KEED 280056Z AUTO 05008KT 10SM CLR 42/11 A2982 RMK AO2 SLP057 T04220111
Pressure 29.70 in
Visibility 10.0 miles
Clouds Clear
Dew Point 52 °F
Humidity 16%
Rainfall 0.00 in
Snow Depth Not available.
UV 1 out of 12
Pollen 5.60 out of 12
Air Quality Not available.
Flu Activity Not available.
METAR KEED 280056Z AUTO 05008KT 10SM CLR 42/11 A2982 RMK AO2 SLP057 T04220111

10-Day Weather Forecast

×

Almanac

Astronomy

Aug. 27, 2015 Rise Set
Actual Time
Civil Twilight
Nautical Twilight
Astronomical Twilight
Moon
Length of Visible Light
Length of Day
Tomorrow will be .
, % of the Moon is Illuminated

Today's Extremes

State Highs State Lows

Community

WunderPhotos

Upload Photos

1,850,296 photos uploaded!

WunderBlogs® & News

Nearby

Air Quality

  Air Quality AQ Index Pollutant
Not available.

Snow Depth

Station Depth Elevation

Earthquake Activity

City Distance Mag. Time & Date
Minimum magnitude displayed is 2.5.

Coastal Water Temperatures

Place Temperature

Stations

Nearby Weather Stations

Station Location Temp. Windchill Dew Point Humidity Wind Precip. Elev Updated Type